Crow Agency, Montana
Current Conditions -  °F | °C
As of 8:53 AM on Thursday 18 Dec 2014 (Local Time) from KBIL Reporting Station
Broken Clouds Broken Clouds  
Wind Chill: 12°   Ceiling: 10000
Heat Index: 25°   Visibility: 10mi
Dew Point: 18°   Wind: 17mph
Humidity: 75%   Direction: 230°SW
Pressure: 29.98"   Gusts: NA
Location:  45.6°N, 107.46°W
Report Text: KBIL 181553Z 23015KT 10SM BKN100 M04/M08 A2998 RMK AO2 SLP187 T10391078
Loading
Personal Weather Stations






























Interactive Weather Map New forecast layout! Learn more

10-Day Weather Forecast

Advertisements
Track Severe Weather on mobile